Time;durP1;ratioP1;P1;durP2;ratioP2;P2;SDS_P1;SDS_P2;PMS_P1;PMS_P2;Temp;Humidity;BMP_temperature;BMP_pressure;BME280_temperature;BME280_humidity;BME280_pressure;Samples;Min_cycle;Max_cycle;Signal;HPM_P1;HPM_P2
2023/04/25 00:01:24;;;;;;;8.48;2.53;;;8.40;92.60;;;;;;5120061;28;20020;-73
2023/04/25 00:03:50;;;;;;;11.60;2.95;;;8.40;92.60;;;;;;5120170;28;20089;-73
2023/04/25 00:06:17;;;;;;;10.30;2.35;;;8.40;92.50;;;;;;5119858;28;20054;-73
2023/04/25 00:08:43;;;;;;;6.90;2.53;;;8.40;92.50;;;;;;5120192;28;20024;-73
2023/04/25 00:11:08;;;;;;;8.77;2.75;;;8.40;92.50;;;;;;5118986;28;20024;-73
2023/04/25 00:13:34;;;;;;;9.82;2.45;;;8.40;92.60;;;;;;5119944;28;20039;-73
2023/04/25 00:16:00;;;;;;;7.25;2.60;;;8.40;92.70;;;;;;5120091;28;20049;-73
2023/04/25 00:18:28;;;;;;;5.32;1.90;;;8.40;92.70;;;;;;5119946;28;20046;-73
2023/04/25 00:20:54;;;;;;;6.10;2.75;;;8.40;92.70;;;;;;5119924;28;20028;-73
2023/04/25 00:23:20;;;;;;;10.18;2.67;;;8.40;92.60;;;;;;5102086;28;20046;-73
2023/04/25 00:25:48;;;;;;;5.43;2.13;;;8.40;92.60;;;;;;5119844;28;20027;-73
2023/04/25 00:28:14;;;;;;;8.20;2.53;;;8.40;92.60;;;;;;5119942;28;20058;-73
2023/04/25 00:30:41;;;;;;;6.65;2.15;;;8.40;93.10;;;;;;5119736;28;20021;-73
2023/04/25 00:33:07;;;;;;;6.65;2.40;;;8.30;92.70;;;;;;5119788;28;20024;-73
2023/04/25 00:35:33;;;;;;;7.00;2.22;;;8.30;92.70;;;;;;5119662;28;20024;-73
2023/04/25 00:37:59;;;;;;;5.50;2.00;;;8.30;92.80;;;;;;5119749;28;20059;-73
2023/04/25 00:40:24;;;;;;;5.63;2.20;;;8.30;92.80;;;;;;5119717;28;20028;-73
2023/04/25 00:42:51;;;;;;;5.82;2.13;;;8.30;92.90;;;;;;5119674;28;20031;-73
2023/04/25 00:45:17;;;;;;;6.90;2.60;;;8.30;92.90;;;;;;5119683;28;20035;-73
2023/04/25 00:47:43;;;;;;;10.95;2.60;;;8.40;92.90;;;;;;5119791;28;20095;-73
2023/04/25 00:50:10;;;;;;;6.25;2.30;;;8.40;93.00;;;;;;5119707;28;20024;-73
2023/04/25 00:52:38;;;;;;;7.30;2.15;;;8.40;93.00;;;;;;5119609;28;20042;-73
2023/04/25 00:55:05;;;;;;;10.48;2.88;;;8.40;93.00;;;;;;5119561;28;20024;-73
2023/04/25 00:57:30;;;;;;;5.18;2.10;;;8.40;93.10;;;;;;5119572;28;20020;-73
2023/04/25 00:59:56;;;;;;;8.25;2.90;;;8.40;93.10;;;;;;5118558;28;20035;-73
2023/04/25 01:02:22;;;;;;;7.15;2.25;;;8.40;93.20;;;;;;5115511;28;20039;-73
2023/04/25 01:04:48;;;;;;;8.45;2.38;;;8.40;93.10;;;;;;5115501;28;20074;-73
2023/04/25 01:07:15;;;;;;;9.55;2.38;;;8.40;93.20;;;;;;5115157;28;20048;-73
2023/04/25 01:09:41;;;;;;;12.60;2.90;;;8.30;93.10;;;;;;5115184;28;20067;-73
2023/04/25 01:12:07;;;;;;;7.28;2.17;;;8.30;93.30;;;;;;5115084;28;20028;-73
2023/04/25 01:14:32;;;;;;;4.85;2.47;;;8.30;93.30;;;;;;5116159;28;20028;-73
2023/04/25 01:16:59;;;;;;;7.40;2.38;;;8.30;93.30;;;;;;5098103;28;20031;-73
2023/04/25 01:19:25;;;;;;;6.78;2.35;;;8.30;93.40;;;;;;5115957;28;20035;-73
2023/04/25 01:21:51;;;;;;;7.95;2.67;;;8.20;93.50;;;;;;5114938;28;20032;-73
2023/04/25 01:24:17;;;;;;;7.15;2.33;;;8.20;93.50;;;;;;5115958;28;20097;-73
2023/04/25 01:26:49;;;;;;;7.70;2.67;;;8.20;93.50;;;;;;5114849;28;20054;-73
2023/04/25 01:29:19;;;;;;;4.40;2.20;;;8.20;93.50;;;;;;5115922;28;20029;-73
2023/04/25 01:31:45;;;;;;;5.97;2.15;;;8.20;93.50;;;;;;5115836;28;20035;-73
2023/04/25 01:34:12;;;;;;;9.48;3.05;;;8.20;93.50;;;;;;5115690;28;20058;-73
2023/04/25 01:36:38;;;;;;;5.55;2.17;;;8.20;93.50;;;;;;5114714;28;20020;-73
2023/04/25 01:39:04;;;;;;;7.38;2.40;;;8.10;93.50;;;;;;5114563;28;20043;-73
2023/04/25 01:41:30;;;;;;;6.55;2.30;;;8.10;93.50;;;;;;5114666;28;20431;-73
2023/04/25 01:43:56;;;;;;;5.43;1.88;;;8.10;93.40;;;;;;5114578;28;20080;-73
2023/04/25 01:46:22;;;;;;;5.45;2.22;;;8.00;93.50;;;;;;5114386;28;20027;-73
2023/04/25 01:48:48;;;;;;;8.98;2.40;;;8.00;93.50;;;;;;5115385;28;20020;-73
2023/04/25 01:51:15;;;;;;;9.25;2.45;;;8.00;93.60;;;;;;5097447;28;20028;-73
2023/04/25 01:53:40;;;;;;;6.88;2.08;;;7.90;93.60;;;;;;5115360;28;20038;-73
2023/04/25 01:56:06;;;;;;;12.00;2.75;;;7.90;93.60;;;;;;5115305;28;20024;-73
2023/04/25 01:58:32;;;;;;;6.55;2.10;;;7.90;93.60;;;;;;5097286;28;20087;-73
2023/04/25 02:00:58;;;;;;;7.03;2.63;;;7.80;93.60;;;;;;5115236;28;20024;-73
2023/04/25 02:03:23;;;;;;;6.63;1.98;;;7.80;93.60;;;;;;5115160;28;20043;-73
2023/04/25 02:05:49;;;;;;;9.40;2.75;;;7.90;93.70;;;;;;5115084;28;20036;-73
2023/04/25 02:08:17;;;;;;;7.72;2.42;;;7.80;93.80;;;;;;5114968;28;20062;-73
2023/04/25 02:10:42;;;;;;;8.95;2.40;;;7.80;93.90;;;;;;5114947;28;20054;-73
2023/04/25 02:13:08;;;;;;;8.57;2.17;;;7.80;93.90;;;;;;5114636;28;20024;-73
2023/04/25 02:15:34;;;;;;;5.38;2.10;;;7.80;93.90;;;;;;5114926;28;20042;-73
2023/04/25 02:18:00;;;;;;;5.85;2.70;;;7.80;93.90;;;;;;5114865;28;20024;-73
2023/04/25 02:20:26;;;;;;;6.47;2.20;;;7.80;94.00;;;;;;5114792;28;20038;-73
2023/04/25 02:22:52;;;;;;;8.30;2.72;;;7.80;94.00;;;;;;5113850;28;20036;-73
2023/04/25 02:25:19;;;;;;;11.15;3.13;;;7.70;94.00;;;;;;5113849;28;20028;-73
2023/04/25 02:27:45;;;;;;;10.68;3.33;;;7.70;94.00;;;;;;5114678;28;20030;-73
2023/04/25 02:30:11;;;;;;;8.52;2.83;;;7.70;94.00;;;;;;5114581;28;20083;-73
2023/04/25 02:32:38;;;;;;;6.47;2.60;;;7.70;94.00;;;;;;5114722;28;20028;-73
2023/04/25 02:35:04;;;;;;;8.57;2.53;;;7.70;94.00;;;;;;5114499;28;20443;-73
2023/04/25 02:37:30;;;;;;;8.18;2.83;;;7.60;94.00;;;;;;5114517;28;20075;-73
2023/04/25 02:39:56;;;;;;;11.18;2.97;;;7.60;94.00;;;;;;5113585;28;20020;-73
2023/04/25 02:42:22;;;;;;;8.57;2.42;;;7.60;93.90;;;;;;5113473;28;20473;-73
2023/04/25 02:44:47;;;;;;;10.57;2.70;;;7.50;93.90;;;;;;5113457;28;20089;-73
2023/04/25 02:47:13;;;;;;;12.35;2.85;;;7.50;93.90;;;;;;5114311;28;20043;-73
2023/04/25 02:49:38;;;;;;;9.80;2.50;;;7.50;93.80;;;;;;5114181;28;20033;-73
2023/04/25 02:52:04;;;;;;;8.48;2.45;;;7.50;93.80;;;;;;5114186;28;20026;-72
2023/04/25 02:54:30;;;;;;;7.25;2.30;;;7.50;93.70;;;;;;5114168;28;20050;-73
2023/04/25 02:56:56;;;;;;;7.63;2.30;;;7.50;93.50;;;;;;5113076;28;20048;-73
2023/04/25 02:59:21;;;;;;;13.23;2.80;;;7.40;93.50;;;;;;5114200;28;20024;-73
2023/04/25 03:01:47;;;;;;;10.13;2.95;;;7.40;93.60;;;;;;5114052;28;20113;-73
2023/04/25 03:04:12;;;;;;;6.90;2.45;;;7.40;93.60;;;;;;5114017;28;20062;-73
2023/04/25 03:06:38;;;;;;;5.32;2.90;;;7.40;93.50;;;;;;5113795;28;20040;-73
2023/04/25 03:09:04;;;;;;;7.72;2.75;;;7.30;93.50;;;;;;5112900;28;20036;-73
2023/04/25 03:11:29;;;;;;;6.78;2.72;;;7.40;93.50;;;;;;5114066;28;20035;-73
2023/04/25 03:13:55;;;;;;;9.13;2.42;;;7.40;93.40;;;;;;5112980;28;20084;-73
2023/04/25 03:16:21;;;;;;;8.07;2.67;;;7.30;93.30;;;;;;5113811;28;20024;-73
2023/04/25 03:18:47;;;;;;;8.93;2.40;;;7.30;93.40;;;;;;5113755;28;20039;-73
2023/04/25 03:21:13;;;;;;;6.78;2.58;;;7.30;93.40;;;;;;5113790;28;20028;-73
2023/04/25 03:23:38;;;;;;;7.88;2.53;;;7.20;93.30;;;;;;5112530;28;20050;-73
2023/04/25 03:26:04;;;;;;;9.70;3.00;;;7.20;93.40;;;;;;5113253;28;20032;-73
2023/04/25 03:28:29;;;;;;;8.98;2.75;;;7.20;93.40;;;;;;5112731;28;20032;-73
2023/04/25 03:30:55;;;;;;;10.55;2.90;;;7.20;93.30;;;;;;5112536;28;20039;-73
2023/04/25 03:33:21;;;;;;;7.05;2.70;;;7.20;93.20;;;;;;5112567;28;20017;-73
2023/04/25 03:35:47;;;;;;;6.38;2.33;;;7.20;92.90;;;;;;5112543;28;20077;-73
2023/04/25 03:38:12;;;;;;;10.32;2.55;;;7.10;93.10;;;;;;5113459;28;20036;-73
2023/04/25 03:40:38;;;;;;;7.78;2.78;;;7.20;93.00;;;;;;5113487;28;20088;-72
2023/04/25 03:43:04;;;;;;;9.93;2.58;;;7.20;93.00;;;;;;5113470;28;20024;-73
2023/04/25 03:45:29;;;;;;;8.80;2.65;;;7.10;93.00;;;;;;5112560;28;20529;-73
2023/04/25 03:47:55;;;;;;;8.15;2.67;;;7.10;93.00;;;;;;5112462;28;20024;-73
2023/04/25 03:50:20;;;;;;;11.02;2.75;;;7.10;93.10;;;;;;5112401;28;20039;-73
2023/04/25 03:52:46;;;;;;;7.55;2.47;;;7.10;93.10;;;;;;5112473;28;20024;-73
2023/04/25 03:55:12;;;;;;;7.20;2.72;;;7.10;93.20;;;;;;5112473;28;20028;-73
2023/04/25 03:57:37;;;;;;;8.55;2.45;;;7.10;93.30;;;;;;5113292;28;20016;-73
2023/04/25 04:00:04;;;;;;;6.55;2.58;;;7.10;93.40;;;;;;5113285;28;20086;-73
2023/04/25 04:02:29;;;;;;;13.55;2.90;;;7.10;93.40;;;;;;5113294;28;20027;-73
2023/04/25 04:04:56;;;;;;;4.90;2.20;;;7.10;93.40;;;;;;5112135;28;20040;-73
2023/04/25 04:07:22;;;;;;;6.93;2.67;;;7.10;93.30;;;;;;5113141;28;20044;-73
2023/04/25 04:09:47;;;;;;;11.23;3.08;;;7.10;93.30;;;;;;5113122;28;20043;-73
2023/04/25 04:12:13;;;;;;;6.82;2.67;;;7.10;93.20;;;;;;5113174;28;20032;-72
2023/04/25 04:14:39;;;;;;;10.35;2.85;;;7.10;93.20;;;;;;5111857;28;20087;-73
2023/04/25 04:17:05;;;;;;;12.10;3.33;;;7.10;93.20;;;;;;5113144;28;20032;-73
2023/04/25 04:19:31;;;;;;;8.07;2.65;;;7.10;93.20;;;;;;5113186;28;20028;-73
2023/04/25 04:21:57;;;;;;;8.75;2.65;;;7.10;93.10;;;;;;5112293;28;20043;-73
2023/04/25 04:24:22;;;;;;;8.52;2.83;;;7.10;93.10;;;;;;5113181;28;20028;-73
2023/04/25 04:26:48;;;;;;;8.13;2.67;;;7.00;93.10;;;;;;5095185;28;20032;-73
2023/04/25 04:29:20;;;;;;;10.55;3.53;;;7.00;93.10;;;;;;5113086;28;20024;-73
2023/04/25 04:31:50;;;;;;;9.60;2.67;;;7.00;93.20;;;;;;5112016;28;20046;-73
2023/04/25 04:34:18;;;;;;;8.05;3.05;;;6.90;93.20;;;;;;5112062;28;20025;-73
2023/04/25 04:36:48;;;;;;;10.63;2.72;;;7.00;93.30;;;;;;5115658;28;20042;-73
2023/04/25 04:39:14;;;;;;;8.60;2.65;;;7.00;93.20;;;;;;5116051;28;20032;-73
2023/04/25 04:41:40;;;;;;;10.43;2.80;;;7.00;93.20;;;;;;5115700;28;20035;-73
2023/04/25 04:44:09;;;;;;;7.18;2.88;;;7.00;93.10;;;;;;5116724;28;20016;-73
2023/04/25 04:46:41;;;;;;;5.90;2.95;;;7.00;93.20;;;;;;5115740;28;20054;-73
2023/04/25 04:49:08;;;;;;;10.50;2.78;;;7.00;93.10;;;;;;5115609;28;20035;-73
2023/04/25 04:51:34;;;;;;;8.90;3.30;;;7.00;93.10;;;;;;5098801;28;20050;-73
2023/04/25 04:54:02;;;;;;;12.38;3.30;;;7.00;93.10;;;;;;5116555;28;20021;-73
2023/04/25 04:56:30;;;;;;;10.85;2.92;;;7.00;93.10;;;;;;5115665;28;20040;-72
2023/04/25 04:58:56;;;;;;;8.55;3.08;;;7.00;93.10;;;;;;5115411;28;20012;-73
2023/04/25 05:01:22;;;;;;;7.75;3.38;;;7.00;93.10;;;;;;5116407;28;20088;-73
2023/04/25 05:03:48;;;;;;;14.20;3.30;;;7.00;93.10;;;;;;5116343;28;20024;-73
2023/04/25 05:06:13;;;;;;;7.18;3.08;;;7.00;93.20;;;;;;5116361;28;20092;-73
2023/04/25 05:08:39;;;;;;;7.40;2.53;;;7.10;93.40;;;;;;5116098;28;20043;-73
2023/04/25 05:11:05;;;;;;;10.85;3.80;;;7.10;93.50;;;;;;5116270;28;20043;-73
2023/04/25 05:13:31;;;;;;;7.47;3.28;;;7.10;93.40;;;;;;5115088;28;20054;-73
2023/04/25 05:15:56;;;;;;;9.50;3.55;;;7.20;93.70;;;;;;5115983;28;20016;-73
2023/04/25 05:18:22;;;;;;;9.65;3.30;;;7.20;93.60;;;;;;5116080;28;20404;-73
2023/04/25 05:20:47;;;;;;;7.22;2.85;;;7.30;93.60;;;;;;5116138;28;20032;-73
2023/04/25 05:23:13;;;;;;;7.85;3.03;;;7.30;93.50;;;;;;5081275;28;20032;-73
2023/04/25 05:25:39;;;;;;;8.85;3.03;;;7.40;93.50;;;;;;5114968;28;20024;-73
2023/04/25 05:28:05;;;;;;;10.35;3.42;;;7.40;93.30;;;;;;5114922;28;20500;-73
2023/04/25 05:30:31;;;;;;;12.10;3.05;;;7.40;93.30;;;;;;5114706;28;20028;-73
2023/04/25 05:32:56;;;;;;;8.32;2.80;;;7.40;93.30;;;;;;5115732;28;20087;-73
2023/04/25 05:35:22;;;;;;;14.45;3.47;;;7.50;93.30;;;;;;5114658;28;20028;-73
2023/04/25 05:37:47;;;;;;;9.93;3.22;;;7.50;93.40;;;;;;5115688;28;20050;-73
2023/04/25 05:40:13;;;;;;;11.00;3.08;;;7.50;93.40;;;;;;5115487;28;20036;-73
2023/04/25 05:42:39;;;;;;;9.00;3.00;;;7.60;93.50;;;;;;5115453;28;20028;-73
2023/04/25 05:45:05;;;;;;;12.00;3.10;;;7.60;93.40;;;;;;5115510;28;20039;-73
2023/04/25 05:47:31;;;;;;;12.82;3.63;;;7.70;93.40;;;;;;5113802;28;20034;-73
2023/04/25 05:49:56;;;;;;;9.73;3.03;;;7.70;93.30;;;;;;5115412;28;20047;-73
2023/04/25 05:52:22;;;;;;;9.63;2.80;;;7.80;93.20;;;;;;5114496;28;20024;-73
2023/04/25 05:54:48;;;;;;;12.75;3.22;;;7.80;93.10;;;;;;5114427;28;20035;-73
2023/04/25 05:57:24;;;;;;;13.05;3.13;;;7.80;93.10;;;;;;5114358;28;20032;-73
2023/04/25 05:59:50;;;;;;;6.53;2.47;;;7.90;93.00;;;;;;5114394;28;20028;-73
2023/04/25 06:02:17;;;;;;;11.07;3.45;;;7.90;92.90;;;;;;5115197;28;20052;-73
2023/04/25 06:04:42;;;;;;;5.90;2.80;;;7.90;92.90;;;;;;5114188;28;20032;-73
2023/04/25 06:07:08;;;;;;;8.30;3.38;;;8.00;92.80;;;;;;5114077;28;20071;-73
2023/04/25 06:09:34;;;;;;;12.13;2.95;;;8.00;92.80;;;;;;5114961;28;20063;-73
2023/04/25 06:12:00;;;;;;;9.30;2.70;;;8.10;92.80;;;;;;5115029;28;20016;-73
2023/04/25 06:14:26;;;;;;;8.05;3.42;;;8.10;92.70;;;;;;5114997;28;20021;-73
2023/04/25 06:16:52;;;;;;;13.18;2.67;;;8.10;92.60;;;;;;5114951;28;20070;-73
2023/04/25 06:19:18;;;;;;;7.65;2.38;;;8.20;92.50;;;;;;5114856;28;20035;-73
2023/04/25 06:21:44;;;;;;;7.32;2.60;;;8.20;92.30;;;;;;5113684;28;20027;-73
2023/04/25 06:24:10;;;;;;;10.55;2.17;;;8.20;92.20;;;;;;5114770;28;20035;-73
2023/04/25 06:26:35;;;;;;;5.63;2.13;;;8.20;92.20;;;;;;5113682;28;20024;-73
2023/04/25 06:29:01;;;;;;;4.88;2.05;;;8.30;92.10;;;;;;5113597;28;20028;-73
2023/04/25 06:31:28;;;;;;;6.53;2.22;;;8.30;92.00;;;;;;5113632;28;20028;-73
2023/04/25 06:33:54;;;;;;;3.53;1.98;;;8.30;92.00;;;;;;5114531;28;20027;-73
2023/04/25 06:36:24;;;;;;;5.45;1.90;;;8.40;91.80;;;;;;5113558;28;20023;-73
2023/04/25 06:38:51;;;;;;;8.93;2.30;;;8.40;91.70;;;;;;5113445;28;20046;-73
2023/04/25 06:41:17;;;;;;;9.60;2.30;;;8.40;91.50;;;;;;5114486;28;20028;-73
2023/04/25 06:43:42;;;;;;;5.80;2.38;;;8.40;91.50;;;;;;5113605;28;20060;-73
2023/04/25 06:46:08;;;;;;;7.18;1.80;;;8.40;91.40;;;;;;5113466;28;20050;-73
2023/04/25 06:48:33;;;;;;;5.63;2.05;;;8.40;91.50;;;;;;5114391;28;20040;-73
2023/04/25 06:50:59;;;;;;;4.72;2.03;;;8.40;91.40;;;;;;5114195;28;20020;-73
2023/04/25 06:53:25;;;;;;;6.82;2.20;;;8.50;91.50;;;;;;5113424;28;20058;-73
2023/04/25 06:55:50;;;;;;;5.88;2.08;;;8.60;91.50;;;;;;5114221;28;20031;-73
2023/04/25 06:58:16;;;;;;;6.65;1.88;;;8.60;91.50;;;;;;5113973;28;20107;-73
2023/04/25 07:00:42;;;;;;;6.63;2.00;;;8.70;91.30;;;;;;5113333;28;20057;-73
2023/04/25 07:03:07;;;;;;;5.10;1.52;;;8.80;91.20;;;;;;5113138;28;20044;-73
2023/04/25 07:05:33;;;;;;;4.90;1.45;;;8.80;91.10;;;;;;5113084;28;20040;-73
2023/04/25 07:08:00;;;;;;;5.63;2.00;;;8.90;91.00;;;;;;5112933;28;20066;-73
2023/04/25 07:10:25;;;;;;;5.00;1.80;;;8.90;90.50;;;;;;5113870;28;20028;-73
2023/04/25 07:12:51;;;;;;;5.60;1.75;;;8.90;90.30;;;;;;5113917;28;20035;-73
2023/04/25 07:15:17;;;;;;;4.85;1.60;;;8.90;90.40;;;;;;5113888;28;20050;-73
2023/04/25 07:17:42;;;;;;;9.13;1.65;;;8.90;90.30;;;;;;5112919;28;20032;-73
2023/04/25 07:20:09;;;;;;;8.93;1.88;;;9.00;90.40;;;;;;5113849;28;20035;-73
2023/04/25 07:22:34;;;;;;;5.07;1.60;;;9.00;90.30;;;;;;5112791;28;20028;-73
2023/04/25 07:25:00;;;;;;;10.13;1.55;;;9.10;90.20;;;;;;5113706;28;20039;-73
2023/04/25 07:27:26;;;;;;;5.38;1.80;;;9.20;90.10;;;;;;5113823;28;20484;-73
2023/04/25 07:29:51;;;;;;;5.80;1.50;;;9.20;90.10;;;;;;5113633;28;20040;-73
2023/04/25 07:32:17;;;;;;;7.38;1.80;;;9.30;90.10;;;;;;5113654;28;20028;-73
2023/04/25 07:34:43;;;;;;;5.88;1.42;;;9.30;90.00;;;;;;5113611;28;20046;-72
2023/04/25 07:37:08;;;;;;;5.40;1.40;;;9.30;89.50;;;;;;5113583;28;20024;-73
2023/04/25 07:39:34;;;;;;;3.47;1.30;;;9.40;89.50;;;;;;5113584;28;20091;-73
2023/04/25 07:42:02;;;;;;;5.07;1.52;;;9.40;89.30;;;;;;5112582;28;20031;-72
2023/04/25 07:44:27;;;;;;;13.52;2.28;;;9.50;89.40;;;;;;5112566;28;20092;-73
2023/04/25 07:46:53;;;;;;;6.03;1.50;;;9.50;88.90;;;;;;5113436;28;20032;-73
2023/04/25 07:49:19;;;;;;;5.93;1.23;;;9.60;88.80;;;;;;5113336;28;20121;-73
2023/04/25 07:51:45;;;;;;;7.30;1.50;;;9.60;89.00;;;;;;5113424;28;20016;-73
2023/04/25 07:54:14;;;;;;;4.43;1.60;;;9.70;88.60;;;;;;5113369;28;20461;-73
2023/04/25 07:56:40;;;;;;;5.85;1.48;;;9.70;88.00;;;;;;5113376;28;20084;-73
2023/04/25 07:59:05;;;;;;;4.15;1.42;;;9.80;87.80;;;;;;5113351;28;20017;-73
2023/04/25 08:01:31;;;;;;;6.65;1.60;;;9.80;88.00;;;;;;5113315;28;20055;-73
2023/04/25 08:03:57;;;;;;;4.57;1.10;;;9.90;87.60;;;;;;5113278;28;20028;-73
2023/04/25 08:06:22;;;;;;;5.03;1.17;;;9.80;86.40;;;;;;5113181;28;20047;-72
2023/04/25 08:08:48;;;;;;;4.45;1.60;;;9.80;86.10;;;;;;5095351;28;20131;-72
2023/04/25 08:11:14;;;;;;;3.55;1.00;;;9.80;86.50;;;;;;5115115;28;20063;-73
2023/04/25 08:13:39;;;;;;;5.40;1.10;;;9.80;86.00;;;;;;5116346;28;20032;-73
2023/04/25 08:16:05;;;;;;;10.85;1.73;;;9.80;86.10;;;;;;5116331;28;20031;-73
2023/04/25 08:18:31;;;;;;;4.38;1.40;;;9.80;86.20;;;;;;5116221;28;20028;-73
2023/04/25 08:20:56;;;;;;;2.88;1.10;;;9.90;85.60;;;;;;5117165;28;20032;-73
2023/04/25 08:23:22;;;;;;;4.20;1.10;;;10.00;85.80;;;;;;5117126;28;20032;-73
2023/04/25 08:25:47;;;;;;;4.70;1.30;;;10.10;85.40;;;;;;5117260;28;20057;-73
2023/04/25 08:28:14;;;;;;;5.80;1.13;;;10.20;84.10;;;;;;5117031;28;20028;-72
2023/04/25 08:30:40;;;;;;;6.43;1.17;;;10.30;83.80;;;;;;5116999;28;20054;-73
2023/04/25 08:33:06;;;;;;;3.13;1.00;;;10.40;83.10;;;;;;5116965;28;20028;-73
2023/04/25 08:35:33;;;;;;;4.15;0.93;;;10.50;82.10;;;;;;5116816;28;20027;-72
2023/04/25 08:37:58;;;;;;;5.63;1.00;;;10.60;81.20;;;;;;5116834;28;20492;-73
2023/04/25 08:40:29;;;;;;;5.80;1.30;;;10.70;80.40;;;;;;5116863;28;20027;-73
2023/04/25 08:42:57;;;;;;;5.47;1.25;;;10.70;79.60;;;;;;5116811;28;20031;-73
2023/04/25 08:45:23;;;;;;;6.05;1.17;;;10.80;78.80;;;;;;5115719;28;20024;-73
2023/04/25 08:47:52;;;;;;;3.88;1.00;;;10.80;78.50;;;;;;5116727;28;20073;-73
2023/04/25 08:50:21;;;;;;;3.00;0.85;;;10.90;78.00;;;;;;5116561;28;20020;-73
2023/04/25 08:52:47;;;;;;;2.53;1.00;;;10.90;77.90;;;;;;5116585;28;20024;-73
2023/04/25 08:55:14;;;;;;;2.58;1.33;;;10.90;78.30;;;;;;5116582;28;20046;-73
2023/04/25 08:57:42;;;;;;;3.63;1.58;;;10.90;78.10;;;;;;5115623;28;20028;-73
2023/04/25 09:00:12;;;;;;;4.00;0.93;;;10.90;78.20;;;;;;5116439;28;20103;-73
2023/04/25 09:02:39;;;;;;;6.72;1.30;;;11.00;78.20;;;;;;5116448;28;20032;-73
2023/04/25 09:05:06;;;;;;;4.82;1.00;;;11.00;78.50;;;;;;5115401;28;20054;-73
2023/04/25 09:07:32;;;;;;;5.72;1.00;;;11.10;77.40;;;;;;5115102;28;20064;-73
2023/04/25 09:10:01;;;;;;;2.25;0.85;;;11.10;77.10;;;;;;5116154;28;20036;-73
2023/04/25 09:12:29;;;;;;;5.50;1.27;;;11.00;76.80;;;;;;5098720;28;20031;-73
2023/04/25 09:15:09;;;;;;;3.35;0.90;;;11.00;76.10;;;;;;5116198;28;20020;-73
2023/04/25 09:17:35;;;;;;;2.38;0.95;;;11.00;76.50;;;;;;5115148;28;20102;-73
2023/04/25 09:20:09;;;;;;;4.00;0.95;;;11.00;76.30;;;;;;5116089;28;20028;-73
2023/04/25 09:22:36;;;;;;;1.60;0.73;;;11.00;76.80;;;;;;5114882;28;20039;-73
2023/04/25 09:25:13;;;;;;;6.35;1.10;;;11.00;75.90;;;;;;5116177;28;20109;-73
2023/04/25 09:27:54;;;;;;;2.15;0.90;;;10.90;75.70;;;;;;5115031;28;20062;-73
2023/04/25 09:30:32;;;;;;;4.32;0.85;;;10.90;76.50;;;;;;5114780;28;20027;-73
2023/04/25 09:33:07;;;;;;;4.43;0.98;;;10.80;76.40;;;;;;5114832;28;20020;-73
2023/04/25 09:35:42;;;;;;;3.17;1.17;;;10.70;76.10;;;;;;5115886;28;20024;-72
2023/04/25 09:38:10;;;;;;;5.85;1.05;;;10.60;76.50;;;;;;5115737;28;20027;-73
2023/04/25 09:40:43;;;;;;;2.03;1.10;;;10.50;77.40;;;;;;5115645;28;20020;-73
2023/04/25 09:43:19;;;;;;;4.80;1.10;;;10.30;78.20;;;;;;5115677;28;20058;-73
2023/04/25 09:45:46;;;;;;;2.80;0.90;;;10.40;79.40;;;;;;5114682;28;20046;-73
2023/04/25 09:48:20;;;;;;;3.78;0.88;;;10.30;79.90;;;;;;5115516;28;20024;-73
2023/04/25 09:51:09;;;;;;;3.25;1.02;;;10.30;79.60;;;;;;5115469;28;20032;-73
2023/04/25 09:53:40;;;;;;;3.22;1.10;;;10.30;79.80;;;;;;5114464;28;20016;-73
2023/04/25 09:56:07;;;;;;;3.58;0.95;;;10.30;79.20;;;;;;5114352;28;20092;-73
2023/04/25 09:58:35;;;;;;;5.95;1.38;;;10.30;79.80;;;;;;5115322;28;20021;-73
2023/04/25 10:01:03;;;;;;;6.20;1.60;;;10.40;81.00;;;;;;5115312;28;20028;-73
2023/04/25 10:03:34;;;;;;;3.80;1.50;;;10.40;81.70;;;;;;5115197;28;20028;-73
2023/04/25 10:06:02;;;;;;;6.30;1.60;;;10.50;81.50;;;;;;5115112;28;20092;-73
2023/04/25 10:08:36;;;;;;;3.80;0.98;;;10.50;81.50;;;;;;5114970;28;20040;-73
2023/04/25 10:11:04;;;;;;;3.60;0.93;;;10.50;79.70;;;;;;5115077;28;20039;-73
2023/04/25 10:13:31;;;;;;;5.68;1.20;;;10.60;78.90;;;;;;5114991;28;20027;-73
2023/04/25 10:16:04;;;;;;;4.43;1.40;;;10.60;78.80;;;;;;5113945;28;20066;-73
2023/04/25 10:18:31;;;;;;;2.28;0.90;;;10.80;77.60;;;;;;5114899;28;20024;-73
2023/04/25 10:21:00;;;;;;;3.97;1.10;;;11.00;79.10;;;;;;5114887;28;20028;-73
2023/04/25 10:23:27;;;;;;;1.92;1.00;;;11.10;78.60;;;;;;5114808;28;20020;-73
2023/04/25 10:25:53;;;;;;;6.00;1.35;;;11.30;78.20;;;;;;5113789;28;20042;-73
2023/04/25 10:28:20;;;;;;;4.00;1.50;;;11.50;79.20;;;;;;5114729;28;20032;-73
2023/04/25 10:30:58;;;;;;;2.88;0.98;;;11.70;78.10;;;;;;5114789;28;20052;-73
2023/04/25 10:33:50;;;;;;;3.35;1.10;;;11.80;76.00;;;;;;5113372;28;20036;-73
2023/04/25 10:36:23;;;;;;;4.30;1.08;;;11.70;73.60;;;;;;5111004;28;20028;-73
2023/04/25 10:38:52;;;;;;;;;;;11.60;74.50;;;;;;5114951;28;20501;-73
2023/04/25 10:41:20;;;;;;;3.50;0.80;;;11.50;73.30;;;;;;5114508;28;19904;-73
2023/04/25 10:43:58;;;;;;;3.97;0.90;;;11.40;74.90;;;;;;5114452;28;20024;-73
2023/04/25 10:46:31;;;;;;;2.83;0.80;;;11.20;75.90;;;;;;5114396;28;20028;-73
2023/04/25 10:48:58;;;;;;;3.28;1.17;;;11.20;77.20;;;;;;5114409;28;20095;-73
2023/04/25 10:51:32;;;;;;;2.47;0.93;;;11.10;77.70;;;;;;5114230;28;20063;-73
2023/04/25 10:54:00;;;;;;;3.35;1.10;;;11.00;78.40;;;;;;5114233;28;20024;-73
2023/04/25 10:56:33;;;;;;;4.28;0.90;;;11.00;78.90;;;;;;5114199;28;20028;-73
2023/04/25 10:59:14;;;;;;;2.25;0.80;;;11.00;79.00;;;;;;5114110;28;20016;-73
2023/04/25 11:01:43;;;;;;;1.20;1.00;;;11.00;79.00;;;;;;5114295;28;20024;-73
2023/04/25 11:04:33;;;;;;;1.92;0.60;;;11.10;79.10;;;;;;5113122;28;20372;-73
2023/04/25 11:07:16;;;;;;;3.13;0.90;;;11.20;78.40;;;;;;5113891;28;20110;-73
2023/04/25 11:09:45;;;;;;;3.40;0.75;;;11.40;78.20;;;;;;5114100;28;20032;-73
2023/04/25 11:12:14;;;;;;;3.78;0.85;;;11.60;77.70;;;;;;5113928;28;20022;-73
2023/04/25 11:14:40;;;;;;;1.38;0.70;;;11.70;74.70;;;;;;5113933;28;20024;-73
2023/04/25 11:17:06;;;;;;;2.15;0.60;;;11.70;71.80;;;;;;5113803;28;20016;-73
2023/04/25 11:19:32;;;;;;;4.05;1.13;;;11.70;71.20;;;;;;5113865;28;20040;-73
2023/04/25 11:22:02;;;;;;;4.97;0.80;;;11.70;71.30;;;;;;5112843;28;20077;-73
2023/04/25 11:24:34;;;;;;;2.70;0.75;;;11.60;70.70;;;;;;5113828;28;20453;-73
2023/04/25 11:27:02;;;;;;;2.00;0.65;;;11.60;71.50;;;;;;5113736;28;20437;-73
2023/04/25 11:29:29;;;;;;;1.83;0.40;;;11.50;69.70;;;;;;5113552;28;20020;-73
2023/04/25 11:31:57;;;;;;;2.50;0.82;;;11.30;69.00;;;;;;5113619;28;20024;-73
2023/04/25 11:34:30;;;;;;;1.90;0.80;;;11.20;70.00;;;;;;5113435;28;20083;-73
2023/04/25 11:36:56;;;;;;;2.55;0.85;;;11.20;71.30;;;;;;5113472;28;20076;-73
2023/04/25 11:39:23;;;;;;;3.70;1.00;;;11.00;71.10;;;;;;5112588;28;20024;-73
2023/04/25 11:41:49;;;;;;;2.88;0.80;;;10.90;72.80;;;;;;5113523;28;20077;-73
2023/04/25 11:44:18;;;;;;;4.47;1.60;;;10.90;73.70;;;;;;5113492;28;20028;-73
2023/04/25 11:46:45;;;;;;;6.45;1.40;;;11.00;74.10;;;;;;5111905;28;20083;-73
2023/04/25 11:49:11;;;;;;;2.10;0.82;;;11.00;74.60;;;;;;5113344;28;20073;-73
2023/04/25 11:51:44;;;;;;;3.42;1.17;;;11.10;75.30;;;;;;5113427;28;20012;-73
2023/04/25 11:54:11;;;;;;;7.00;0.98;;;11.20;74.60;;;;;;5112585;28;20026;-73
2023/04/25 11:56:37;;;;;;;4.85;1.05;;;11.20;73.50;;;;;;5113348;28;20043;-73
2023/04/25 11:59:05;;;;;;;3.38;1.20;;;11.20;73.70;;;;;;5113317;28;20031;-73
2023/04/25 12:01:38;;;;;;;3.45;0.95;;;11.30;73.40;;;;;;5113307;28;20025;-73
2023/04/25 12:04:20;;;;;;;3.25;0.73;;;11.40;73.10;;;;;;5113246;28;20028;-73
2023/04/25 12:06:47;;;;;;;4.13;1.02;;;11.50;72.10;;;;;;5113043;28;20053;-73
2023/04/25 12:09:15;;;;;;;2.03;1.20;;;11.70;73.40;;;;;;5113215;28;20032;-73
2023/04/25 12:12:05;;;;;;;6.45;1.20;;;11.90;74.20;;;;;;5113348;28;20076;-73
2023/04/25 12:14:35;;;;;;;2.67;0.90;;;12.20;72.70;;;;;;5113212;28;20054;-73
2023/04/25 12:17:03;;;;;;;3.85;0.95;;;12.30;73.60;;;;;;5113445;28;20034;-73
2023/04/25 12:19:37;;;;;;;2.67;0.85;;;12.40;71.50;;;;;;5113179;28;20026;-73
2023/04/25 12:22:03;;;;;;;2.22;0.52;;;12.50;71.30;;;;;;5113095;28;20046;-73
2023/04/25 12:24:29;;;;;;;1.52;0.80;;;12.70;71.10;;;;;;5113117;28;20088;-73
2023/04/25 12:27:07;;;;;;;4.97;0.80;;;12.80;69.90;;;;;;5095386;28;20021;-73
2023/04/25 12:29:34;;;;;;;3.80;0.80;;;13.00;69.90;;;;;;5112151;28;20038;-73
2023/04/25 12:32:01;;;;;;;2.67;0.70;;;13.10;70.30;;;;;;5112078;28;20051;-73
2023/04/25 12:34:27;;;;;;;0.73;0.40;;;13.20;64.30;;;;;;5112968;28;20043;-73
2023/04/25 12:36:53;;;;;;;3.25;0.73;;;13.20;61.10;;;;;;5111972;28;20110;-73
2023/04/25 12:39:24;;;;;;;3.58;0.50;;;13.20;60.40;;;;;;5111808;28;20110;-73
2023/04/25 12:41:53;;;;;;;3.97;0.75;;;13.30;61.40;;;;;;5112898;28;20035;-73
2023/04/25 12:44:20;;;;;;;1.90;0.77;;;13.30;60.20;;;;;;5112967;28;20534;-73
2023/04/25 12:46:47;;;;;;;2.05;0.60;;;13.40;58.60;;;;;;5112948;28;20392;-73
2023/04/25 12:49:12;;;;;;;2.03;0.65;;;13.40;59.80;;;;;;5111847;28;20075;-73
2023/04/25 12:51:38;;;;;;;1.75;0.63;;;13.50;59.10;;;;;;5112840;28;20028;-73
2023/04/25 12:54:06;;;;;;;1.63;0.60;;;13.50;56.90;;;;;;5112870;28;20036;-73